LSME 192320Z AUTO 24002KT 9999NDV BKN130 16/16 Q1025 RMK LSME 192220Z AUTO 23004KT 190V250 9999NDV SCT120 BKN140 15/15 Q1025 RMK LSME 192150Z AUTO 26003KT 210V280 9999NDV BKN130 18/16 Q1024 RMK LSME 192120Z AUTO 23004KT 170V280 9999NDV BKN130 18/15 Q1024 RMK LSME 192050Z AUTO 23005KT 120V280 9999NDV FEW130 19/14 Q1024 RMK LSME 192020Z AUTO 20006KT 150V250 9999NDV FEW130 20/14 Q1024 RMK LSME 191950Z AUTO 17008KT 120V240 9999NDV NCD 20/14 Q1023 RMK LSME 191920Z AUTO 17007KT 120V230 9999NDV NCD 20/14 Q1023 RMK LSME 191850Z AUTO 19006KT 140V240 9999NDV NCD 21/13 Q1023 RMK LSME 191820Z AUTO 16011KT 120V190 9999NDV FEW079 22/13 Q1023 RMK LSME 191750Z AUTO 15013KT 120V190 9999NDV -SHRA FEW034 BKN081 BKN096 21/15 Q1024 RMK LSME 191720Z AUTO 15014G24KT 120V190 9999NDV BKN098 22/14 Q1024 RERA RMK LSME 191650Z AUTO VRB05KT 9999NDV -SHRA FEW028 BKN100 22/16 Q1024 RESHRA RMK LSME 191620Z AUTO VRB05KT 9999NDV BKN081 BKN170 22/16 Q1024 RMK LSME 191550Z AUTO 18006KT 140V230 9999NDV FEW093 SCT170 22/17 Q1023 RMK LSME 191520Z AUTO 16005KT 120V210 9999NDV -SHRA FEW023 22/19 Q1023 RESHRA RMK LSME 191450Z AUTO 23007KT 210V300 9000NDV SHRA FEW019 BKN046 BKN110 21/20 Q1024 RMK LSME 191350Z 18004KT 120V230 9999 FEW067 SCT110 25/15 Q1023 RMK BLU+ LSME 191320Z 21005KT 160V240 9999 FEW097 25/16 Q1023 RMK BLU+ LSME 191250Z 18004KT 120V240 9999 FEW045 SCT100 25/15 Q1023 RMK BLU+ LSME 191220Z 20004KT 9999 -SHRA FEW054 BKN100 24/17 Q1023 RMK BLU LSME 191150Z 25003KT 210V280 9999 -RA SCT028 BKN100 26/16 Q1023 RMK BLU LSME 191120Z 28004KT 9999 FEW031 BKN110 BKN150 27/15 Q1023 RMK BLU LSME 191050Z VRB02KT 9999 SCT097 28/14 Q1023 RMK BLU+ LSME 191020Z AUTO VRB01KT 9999NDV FEW150 27/14 Q1023 RMK LSME 190950Z AUTO VRB02KT 9999NDV NCD 27/14 Q1023 RMK LSME 190920Z VRB01KT CAVOK 25/15 Q1023 RMK BLU LSME 190750Z 00000KT 9999 FEW100 23/15 Q1024 RMK BLU+ LSME 190720Z 00000KT CAVOK 22/15 Q1024 RMK BLU LSME 190650Z 00000KT 9999 FEW098 20/16 Q1024 RMK BLU+ LSME 190620Z 00000KT 9999 SCT097 19/18 Q1023 RMK BLU+ LSME 190550Z 00000KT 9999 SCT099 17/17 Q1023 RMK BLU+ LSME 190520Z 00000KT CAVOK 16/16 Q1023 RMK BLU LSME 190450Z VRB01KT 9999 FEW094 14/14 Q1023 RMK BLU+ LSME 190420Z AUTO 00000KT 9999NDV SCT093 14/14 Q1022 RMK LSME 190350Z AUTO 00000KT 9999NDV FEW095 14/13 Q1022 RMK LSME 190320Z AUTO 00000KT 9999NDV NCD 14/14 Q1022 RMK LSME 190250Z AUTO 00000KT 9999NDV NCD 14/14 Q1022 RMK LSME 190220Z AUTO 00000KT 9999NDV NCD 14/14 Q1022 RMK LSME 190150Z AUTO 00000KT 9999NDV NCD 14/14 Q1022 RMK LSME 190120Z AUTO 00000KT 9999NDV NCD 15/15 Q1022 RMK LSME 190050Z AUTO 00000KT 9999NDV NCD 15/15 Q1021 RMK LSME 190020Z AUTO 00000KT 9999NDV NCD 15/15 Q1021 RMK LSME 182350Z AUTO 00000KT 9999NDV NCD 16/15 Q1021 RMK LSME 182320Z AUTO 21002KT 9999NDV NCD 17/14 Q1021 RMK LSME 182250Z AUTO VRB02KT 9999NDV NCD 16/14 Q1021 RMK LSME 182220Z AUTO 00000KT 9999NDV NCD 17/15 Q1021 RMK LSME 182150Z AUTO 21001KT 9999NDV NCD 18/14 Q1021 RMK LSME 182120Z AUTO VRB01KT 9999NDV NCD 19/14 Q1021 RMK LSME 182050Z AUTO 00000KT 9999NDV NCD 19/14 Q1020 RMK LSME 182020Z AUTO 24002KT 9999NDV NCD 21/13 Q1020 RMK LSME 181950Z AUTO 00000KT 9999NDV NCD 20/15 Q1020 RMK LSME 181920Z AUTO 00000KT 9999NDV NCD 22/14 Q1020 RMK LSME 181850Z AUTO VRB01KT 9999NDV NCD 24/14 Q1020 RMK LSME 181820Z AUTO 36001KT 9999NDV NCD 25/13 Q1020 RMK LSME 181750Z AUTO 02003KT 350V050 9999NDV NCD 26/13 Q1020 RMK LSME 181720Z AUTO 02004KT 340V060 9999NDV NCD 27/13 Q1020 RMK LSME 181650Z AUTO 04004KT 010V070 9999NDV NCD 27/13 Q1020 RMK LSME 181620Z AUTO 02004KT 340V060 9999NDV NCD 28/12 Q1020 RMK LSME 181550Z AUTO 01005KT 320V030 9999NDV NCD 27/12 Q1020 RMK LSME 181520Z AUTO 02004KT 340V060 9999NDV NCD 28/12 Q1020 RMK LSME 181450Z AUTO 36006KT 300V050 9999NDV NCD 27/12 Q1020 RMK LSME 181420Z 02003KT 320V070 CAVOK 28/13 Q1020 RMK BLU LSME 181320Z 04005KT 010V100 CAVOK 27/13 Q1021 RMK BLU LSME 181250Z 06005KT 010V080 CAVOK 27/13 Q1021 RMK BLU LSME 181220Z 04004KT 010V080 CAVOK 27/12 Q1021 RMK BLU

METAR Messwerte "EMMEN" LSME

Zurück zur Übersicht

Ortsname
Ländercode / m ü. NN
Zeit Temperatur Taupunkt Rel.
Luftfeuchte
Luftdruck:
Altimeter
NN
Station
Wind in Beaufort
(Knoten)
Sichtweite
(Meter)
Wolken
(Meter über Grund)
Wettererscheinung
EMMEN
CH 427
Fr 20.05. 01:201616100 %1025
1025
974
WSW 1 (2) Stark bewölkt (4000) 
EMMEN
CH 427
Fr 20.05. 00:201515100 %1025
1025
974
SW 2 (4)
S - WSW
 Stark bewölkt (4300)
Wolkig (3700)
 
EMMEN
CH 427
Do 19.05. 23:50181688 %1024
1024
973
W 2 (3)
SSW - W
 Stark bewölkt (4000) 
EMMEN
CH 427
Do 19.05. 23:20181583 %1024
1024
973
SW 2 (4)
S - W
 Stark bewölkt (4000) 
EMMEN
CH 427
Do 19.05. 22:50191473 %1024
1023
973
SW 2 (5)
OSO - W
 Leicht bewölkt (4000) 
EMMEN
CH 427
Do 19.05. 22:20201468 %1024
1023
973
SSW 2 (6)
SSO - WSW
 Leicht bewölkt (4000) 
EMMEN
CH 427
Do 19.05. 21:50201468 %1023
1022
972
S 3 (8)
OSO - WSW
   
EMMEN
CH 427
Do 19.05. 21:20201468 %1023
1022
972
S 3 (7)
OSO - SW
   
EMMEN
CH 427
Do 19.05. 20:50211360 %1023
1022
972
S 2 (6)
SO - WSW
   
EMMEN
CH 427
Do 19.05. 20:20221357 %1023
1022
972
SSO 4 (11)
OSO - S
 Leicht bewölkt (2400) 
EMMEN
CH 427
Do 19.05. 19:50211569 %1024
1023
973
SSO 4 (13)
OSO - S
 Stark bewölkt (2900)
Stark bewölkt (2500)
Leicht bewölkt (1000)
Regen-Schauer (schwach)
EMMEN
CH 427
Do 19.05. 19:20221460 %1024
1023
973
SSO 4 (14) - 6 (24)
OSO - S
 Stark bewölkt (3000) 
EMMEN
CH 427
Do 19.05. 18:50221669 %1024
1023
973
Uml 2 (5) Stark bewölkt (3000)
Leicht bewölkt (850)
Regen-Schauer (schwach)
EMMEN
CH 427
Do 19.05. 18:20221669 %1024
1023
973
Uml 2 (5) Stark bewölkt (5200)
Stark bewölkt (2500)
 
EMMEN
CH 427
Do 19.05. 17:50221773 %1023
1022
972
S 2 (6)
SO - SW
 Wolkig (5200)
Leicht bewölkt (2800)
 
EMMEN
CH 427
Do 19.05. 17:20221983 %1023
1022
972
SSO 2 (5)
OSO - SSW
 Leicht bewölkt (700)Regen-Schauer (schwach)
EMMEN
CH 427
Do 19.05. 16:50212094 %1024
1023
973
SW 3 (7)
SSW - WNW
 Stark bewölkt (3400)
Stark bewölkt (1400)
Leicht bewölkt (580)
Regen-Schauer
EMMEN
CH 427
Do 19.05. 15:50251554 %1023
1021
972
S 2 (4)
OSO - SW
>= 10000Wolkig (3400)
Leicht bewölkt (2000)
 
EMMEN
CH 427
Do 19.05. 15:20251657 %1023
1021
972
SSW 2 (5)
SSO - WSW
>= 10000Leicht bewölkt (3000) 
EMMEN
CH 427
Do 19.05. 14:50251554 %1023
1021
972
S 2 (4)
OSO - WSW
>= 10000Wolkig (3000)
Leicht bewölkt (1400)
 
EMMEN
CH 427
Do 19.05. 14:20241765 %1023
1022
972
SSW 2 (4)>= 10000Stark bewölkt (3000)
Leicht bewölkt (1600)
Regen-Schauer (schwach)
EMMEN
CH 427
Do 19.05. 13:50261654 %1023
1021
972
WSW 2 (3)
SSW - W
>= 10000Stark bewölkt (3000)
Wolkig (850)
Regen (schwach)
EMMEN
CH 427
Do 19.05. 13:20271548 %1023
1021
972
W 2 (4)>= 10000Stark bewölkt (4600)
Stark bewölkt (3400)
Leicht bewölkt (940)
 
EMMEN
CH 427
Do 19.05. 12:50281442 %1023
1021
972
Uml 1 (2)>= 10000Wolkig (3000) 
EMMEN
CH 427
Do 19.05. 12:20271445 %1023
1021
972
Uml 1 (1) Leicht bewölkt (4600) 
EMMEN
CH 427
Do 19.05. 11:50271445 %1023
1021
972
Uml 1 (2)   
EMMEN
CH 427
Do 19.05. 11:20251554 %1023
1021
972
Uml 1 (1)>= 10000Nicht signifikant 
EMMEN
CH 427
Do 19.05. 09:50231561 %1024
1023
973
Windstill>= 10000Leicht bewölkt (3000) 
EMMEN
CH 427
Do 19.05. 09:20221565 %1024
1023
973
Windstill>= 10000Nicht signifikant 
EMMEN
CH 427
Do 19.05. 08:50201678 %1024
1023
973
Windstill>= 10000Leicht bewölkt (3000) 
EMMEN
CH 427
Do 19.05. 08:20191894 %1023
1022
972
Windstill>= 10000Wolkig (3000) 
EMMEN
CH 427
Do 19.05. 07:501717100 %1023
1023
972
Windstill>= 10000Wolkig (3000) 
EMMEN
CH 427
Do 19.05. 07:201616100 %1023
1023
972
Windstill>= 10000Nicht signifikant 
EMMEN
CH 427
Do 19.05. 06:501414100 %1023
1023
972
Uml 1 (1)>= 10000Leicht bewölkt (2900) 
EMMEN
CH 427
Do 19.05. 06:201414100 %1022
1022
971
Windstill Wolkig (2800) 
EMMEN
CH 427
Do 19.05. 05:50141394 %1022
1022
971
Windstill Leicht bewölkt (2900) 
EMMEN
CH 427
Do 19.05. 05:201414100 %1022
1022
971
Windstill   
EMMEN
CH 427
Do 19.05. 04:501414100 %1022
1022
971
Windstill   
EMMEN
CH 427
Do 19.05. 04:201414100 %1022
1022
971
Windstill   
EMMEN
CH 427
Do 19.05. 03:501414100 %1022
1022
971
Windstill   
EMMEN
CH 427
Do 19.05. 03:201515100 %1022
1022
971
Windstill   
EMMEN
CH 427
Do 19.05. 02:501515100 %1021
1021
970
Windstill   
EMMEN
CH 427
Do 19.05. 02:201515100 %1021
1021
970
Windstill   
EMMEN
CH 427
Do 19.05. 01:50161594 %1021
1021
970
Windstill   
EMMEN
CH 427
Do 19.05. 01:20171482 %1021
1021
970
SSW 1 (2)   
EMMEN
CH 427
Do 19.05. 00:50161488 %1021
1021
970
Uml 1 (2)   
EMMEN
CH 427
Do 19.05. 00:20171588 %1021
1021
970
Windstill   
EMMEN
CH 427
Mi 18.05. 23:50181477 %1021
1021
970
SSW 1 (1)   
EMMEN
CH 427
Mi 18.05. 23:20191473 %1021
1020
970
Uml 1 (1)   
EMMEN
CH 427
Mi 18.05. 22:50191473 %1020
1019
969
Windstill   
EMMEN
CH 427
Mi 18.05. 22:20211360 %1020
1019
969
WSW 1 (2)   
EMMEN
CH 427
Mi 18.05. 21:50201573 %1020
1019
969
Windstill   
EMMEN
CH 427
Mi 18.05. 21:20221460 %1020
1019
969
Windstill   
EMMEN
CH 427
Mi 18.05. 20:50241454 %1020
1018
969
Uml 1 (1)   
EMMEN
CH 427
Mi 18.05. 20:20251347 %1020
1018
969
N 1 (1)   
EMMEN
CH 427
Mi 18.05. 19:50261345 %1020
1018
969
NNO 2 (3)
N - NO
   
EMMEN
CH 427
Mi 18.05. 19:20271342 %1020
1018
969
NNO 2 (4)
NNW - ONO
   
EMMEN
CH 427
Mi 18.05. 18:50271342 %1020
1018
969
NO 2 (4)
N - ONO
   
EMMEN
CH 427
Mi 18.05. 18:20281237 %1020
1018
969
NNO 2 (4)
NNW - ONO
   
EMMEN
CH 427
Mi 18.05. 17:50271239 %1020
1018
969
N 2 (5)
NW - NNO
   
EMMEN
CH 427
Mi 18.05. 17:20281237 %1020
1018
969
NNO 2 (4)
NNW - ONO
   
EMMEN
CH 427
Mi 18.05. 16:50271239 %1020
1018
969
N 2 (6)
WNW - NO
   
EMMEN
CH 427
Mi 18.05. 16:20281340 %1020
1018
969
NNO 2 (3)
NW - ONO
>= 10000Nicht signifikant 
EMMEN
CH 427
Mi 18.05. 15:20271342 %1021
1019
970
NO 2 (5)
N - O
>= 10000Nicht signifikant 
EMMEN
CH 427
Mi 18.05. 14:50271342 %1021
1019
970
ONO 2 (5)
N - O
>= 10000Nicht signifikant 
EMMEN
CH 427
Mi 18.05. 14:20271239 %1021
1019
970
NO 2 (4)
N - O
>= 10000Nicht signifikant 

Altimeter: Einstellung am Altimeter (Höhenmesser), die Höhe 0 muss auf diesen Luftdruckwert zeigen, damit das Gerät die Stationshöhe richtig anzeigt.

NN: Luftdruck reduziert auf "Normal Null", auf Meereshöhe, dieser von der Temperatur abhängige Wert wird bisweilen unkorrekt einfach als "Luftdruck" bezeichnet. Eigentlich nur eine fiktive Größe, die es erlaubt, Stationen auf unterschiedlichen Höhen miteinander zu vergleichen.

Station: Realer Luftdruck an der Station.